sensor_id;sensor_type;location;lat;lon;timestamp;temperature;humidity
506;DHT22;551;48.524;9.056;2023-08-17T00:00:06;20.80;1.00
506;DHT22;551;48.524;9.056;2023-08-17T00:02:35;20.80;1.00
506;DHT22;551;48.524;9.056;2023-08-17T00:05:01;20.70;1.00
506;DHT22;551;48.524;9.056;2023-08-17T00:07:26;20.70;1.00
506;DHT22;551;48.524;9.056;2023-08-17T00:09:52;20.60;1.00
506;DHT22;551;48.524;9.056;2023-08-17T00:12:17;20.60;1.00
506;DHT22;551;48.524;9.056;2023-08-17T00:14:43;20.60;1.00
506;DHT22;551;48.524;9.056;2023-08-17T00:17:08;20.60;1.00
506;DHT22;551;48.524;9.056;2023-08-17T00:19:34;20.60;1.00
506;DHT22;551;48.524;9.056;2023-08-17T00:21:59;20.60;1.00
506;DHT22;551;48.524;9.056;2023-08-17T00:24:25;20.60;1.00
506;DHT22;551;48.524;9.056;2023-08-17T00:26:50;20.60;1.00
506;DHT22;551;48.524;9.056;2023-08-17T00:29:19;20.50;1.00
506;DHT22;551;48.524;9.056;2023-08-17T00:31:44;20.50;1.00
506;DHT22;551;48.524;9.056;2023-08-17T00:34:10;20.50;1.00
506;DHT22;551;48.524;9.056;2023-08-17T00:36:35;20.50;1.00
506;DHT22;551;48.524;9.056;2023-08-17T00:39:01;20.40;1.00
506;DHT22;551;48.524;9.056;2023-08-17T00:41:26;20.40;1.00
506;DHT22;551;48.524;9.056;2023-08-17T00:43:54;20.30;1.00
506;DHT22;551;48.524;9.056;2023-08-17T00:46:20;20.40;1.00
506;DHT22;551;48.524;9.056;2023-08-17T00:48:48;20.40;1.00
506;DHT22;551;48.524;9.056;2023-08-17T00:51:13;20.30;1.00
506;DHT22;551;48.524;9.056;2023-08-17T00:53:39;20.20;1.00
506;DHT22;551;48.524;9.056;2023-08-17T00:56:05;20.20;1.00
506;DHT22;551;48.524;9.056;2023-08-17T00:58:31;20.20;1.00
506;DHT22;551;48.524;9.056;2023-08-17T01:00:57;20.20;1.00
506;DHT22;551;48.524;9.056;2023-08-17T01:03:23;20.20;1.00
506;DHT22;551;48.524;9.056;2023-08-17T01:05:49;20.20;1.00
506;DHT22;551;48.524;9.056;2023-08-17T01:08:15;20.20;1.00
506;DHT22;551;48.524;9.056;2023-08-17T01:11:02;20.20;1.00
506;DHT22;551;48.524;9.056;2023-08-17T01:13:36;20.20;1.00
506;DHT22;551;48.524;9.056;2023-08-17T01:16:05;20.20;1.00
506;DHT22;551;48.524;9.056;2023-08-17T01:18:35;20.10;1.00
506;DHT22;551;48.524;9.056;2023-08-17T01:21:06;20.10;1.00
506;DHT22;551;48.524;9.056;2023-08-17T01:23:32;20.10;1.00
506;DHT22;551;48.524;9.056;2023-08-17T01:25:57;20.20;1.00
506;DHT22;551;48.524;9.056;2023-08-17T01:28:23;20.20;1.00
506;DHT22;551;48.524;9.056;2023-08-17T01:30:55;20.20;1.00
506;DHT22;551;48.524;9.056;2023-08-17T01:33:33;20.20;1.00
506;DHT22;551;48.524;9.056;2023-08-17T01:38:40;20.20;1.00
506;DHT22;551;48.524;9.056;2023-08-17T01:41:06;20.30;1.00
506;DHT22;551;48.524;9.056;2023-08-17T01:43:32;20.20;1.00
506;DHT22;551;48.524;9.056;2023-08-17T01:45:59;20.30;1.00
506;DHT22;551;48.524;9.056;2023-08-17T01:48:25;20.20;1.00
506;DHT22;551;48.524;9.056;2023-08-17T01:50:50;20.20;1.00
506;DHT22;551;48.524;9.056;2023-08-17T01:53:16;20.20;1.00
506;DHT22;551;48.524;9.056;2023-08-17T01:55:41;20.20;1.00
506;DHT22;551;48.524;9.056;2023-08-17T01:58:07;20.10;1.00
506;DHT22;551;48.524;9.056;2023-08-17T02:00:32;20.10;1.00
506;DHT22;551;48.524;9.056;2023-08-17T02:03:01;20.10;1.00
506;DHT22;551;48.524;9.056;2023-08-17T02:05:26;20.10;1.00
506;DHT22;551;48.524;9.056;2023-08-17T02:07:54;20.10;1.00
506;DHT22;551;48.524;9.056;2023-08-17T02:10:19;20.10;1.00
506;DHT22;551;48.524;9.056;2023-08-17T02:12:45;20.10;1.00
506;DHT22;551;48.524;9.056;2023-08-17T02:15:12;20.10;1.00
506;DHT22;551;48.524;9.056;2023-08-17T02:17:37;20.10;1.00
506;DHT22;551;48.524;9.056;2023-08-17T02:20:03;20.20;1.00
506;DHT22;551;48.524;9.056;2023-08-17T02:22:29;20.20;1.00
506;DHT22;551;48.524;9.056;2023-08-17T02:24:55;20.20;1.00
506;DHT22;551;48.524;9.056;2023-08-17T02:27:20;20.20;1.00
506;DHT22;551;48.524;9.056;2023-08-17T02:29:46;20.20;1.00
506;DHT22;551;48.524;9.056;2023-08-17T02:32:11;20.20;1.00
506;DHT22;551;48.524;9.056;2023-08-17T02:34:37;20.20;1.00
506;DHT22;551;48.524;9.056;2023-08-17T02:37:02;20.20;1.00
506;DHT22;551;48.524;9.056;2023-08-17T02:39:28;20.20;1.00
506;DHT22;551;48.524;9.056;2023-08-17T02:41:53;20.10;1.00
506;DHT22;551;48.524;9.056;2023-08-17T02:44:20;20.10;1.00
506;DHT22;551;48.524;9.056;2023-08-17T02:46:45;20.10;1.00
506;DHT22;551;48.524;9.056;2023-08-17T02:49:11;20.10;1.00
506;DHT22;551;48.524;9.056;2023-08-17T02:51:36;20.10;1.00
506;DHT22;551;48.524;9.056;2023-08-17T02:54:02;20.10;1.00
506;DHT22;551;48.524;9.056;2023-08-17T02:56:27;20.10;1.00
506;DHT22;551;48.524;9.056;2023-08-17T02:58:53;20.10;1.00
506;DHT22;551;48.524;9.056;2023-08-17T03:01:18;20.10;1.00
506;DHT22;551;48.524;9.056;2023-08-17T03:03:44;20.10;1.00
506;DHT22;551;48.524;9.056;2023-08-17T03:06:09;20.10;1.00
506;DHT22;551;48.524;9.056;2023-08-17T03:08:35;20.10;1.00
506;DHT22;551;48.524;9.056;2023-08-17T03:11:00;20.10;1.00
506;DHT22;551;48.524;9.056;2023-08-17T03:13:26;20.10;1.00
506;DHT22;551;48.524;9.056;2023-08-17T03:15:51;20.00;1.00
506;DHT22;551;48.524;9.056;2023-08-17T03:18:17;20.00;1.00
506;DHT22;551;48.524;9.056;2023-08-17T03:20:44;20.00;1.00
506;DHT22;551;48.524;9.056;2023-08-17T03:23:10;20.00;1.00
506;DHT22;551;48.524;9.056;2023-08-17T03:25:36;20.00;1.00
506;DHT22;551;48.524;9.056;2023-08-17T03:28:01;20.00;1.00
506;DHT22;551;48.524;9.056;2023-08-17T03:30:27;20.00;1.00
506;DHT22;551;48.524;9.056;2023-08-17T03:32:52;20.00;1.00
506;DHT22;551;48.524;9.056;2023-08-17T03:35:18;20.10;1.00
506;DHT22;551;48.524;9.056;2023-08-17T03:37:44;20.00;1.00
506;DHT22;551;48.524;9.056;2023-08-17T03:40:10;20.00;1.00
506;DHT22;551;48.524;9.056;2023-08-17T03:42:36;20.00;1.00
506;DHT22;551;48.524;9.056;2023-08-17T03:45:02;20.10;1.00
506;DHT22;551;48.524;9.056;2023-08-17T03:47:28;20.00;1.00
506;DHT22;551;48.524;9.056;2023-08-17T03:49:54;20.00;1.00
506;DHT22;551;48.524;9.056;2023-08-17T03:52:19;20.00;1.00
506;DHT22;551;48.524;9.056;2023-08-17T03:54:45;20.00;1.00
506;DHT22;551;48.524;9.056;2023-08-17T03:57:12;20.00;1.00
506;DHT22;551;48.524;9.056;2023-08-17T03:59:37;20.00;1.00
506;DHT22;551;48.524;9.056;2023-08-17T04:02:03;20.00;1.00
506;DHT22;551;48.524;9.056;2023-08-17T04:04:28;20.00;1.00
506;DHT22;551;48.524;9.056;2023-08-17T04:06:54;20.00;1.00
506;DHT22;551;48.524;9.056;2023-08-17T04:09:19;20.10;1.00
506;DHT22;551;48.524;9.056;2023-08-17T04:11:45;20.00;1.00
506;DHT22;551;48.524;9.056;2023-08-17T04:14:10;20.10;1.00
506;DHT22;551;48.524;9.056;2023-08-17T04:16:36;20.10;1.00
506;DHT22;551;48.524;9.056;2023-08-17T04:19:01;20.10;1.00
506;DHT22;551;48.524;9.056;2023-08-17T04:21:27;20.10;1.00
506;DHT22;551;48.524;9.056;2023-08-17T04:23:52;20.00;1.00
506;DHT22;551;48.524;9.056;2023-08-17T04:26:18;20.10;1.00
506;DHT22;551;48.524;9.056;2023-08-17T04:28:43;20.10;1.00
506;DHT22;551;48.524;9.056;2023-08-17T04:31:09;20.10;1.00
506;DHT22;551;48.524;9.056;2023-08-17T04:33:34;20.20;1.00
506;DHT22;551;48.524;9.056;2023-08-17T04:36:00;20.20;1.00
506;DHT22;551;48.524;9.056;2023-08-17T04:38:26;20.20;1.00
506;DHT22;551;48.524;9.056;2023-08-17T04:40:52;20.20;1.00
506;DHT22;551;48.524;9.056;2023-08-17T04:43:17;20.20;1.00
506;DHT22;551;48.524;9.056;2023-08-17T04:45:43;20.20;1.00
506;DHT22;551;48.524;9.056;2023-08-17T04:48:12;20.20;1.00
506;DHT22;551;48.524;9.056;2023-08-17T04:50:38;20.30;1.00
506;DHT22;551;48.524;9.056;2023-08-17T04:53:03;20.30;1.00
506;DHT22;551;48.524;9.056;2023-08-17T04:55:29;20.40;1.00
506;DHT22;551;48.524;9.056;2023-08-17T04:57:54;20.40;1.00
506;DHT22;551;48.524;9.056;2023-08-17T05:00:20;20.40;1.00
506;DHT22;551;48.524;9.056;2023-08-17T05:02:50;20.50;1.00
506;DHT22;551;48.524;9.056;2023-08-17T05:05:16;20.50;1.00
506;DHT22;551;48.524;9.056;2023-08-17T05:07:42;20.60;1.00
506;DHT22;551;48.524;9.056;2023-08-17T05:10:08;20.50;1.00
506;DHT22;551;48.524;9.056;2023-08-17T05:12:34;20.50;1.00
506;DHT22;551;48.524;9.056;2023-08-17T05:14:59;20.60;1.00
506;DHT22;551;48.524;9.056;2023-08-17T05:17:25;20.70;1.00
506;DHT22;551;48.524;9.056;2023-08-17T05:19:50;20.70;1.00
506;DHT22;551;48.524;9.056;2023-08-17T05:22:16;20.80;1.00
506;DHT22;551;48.524;9.056;2023-08-17T05:24:42;20.80;1.00
506;DHT22;551;48.524;9.056;2023-08-17T05:27:07;20.80;1.00
506;DHT22;551;48.524;9.056;2023-08-17T05:29:33;20.90;1.00
506;DHT22;551;48.524;9.056;2023-08-17T05:31:59;21.00;1.00
506;DHT22;551;48.524;9.056;2023-08-17T05:34:24;21.10;1.00
506;DHT22;551;48.524;9.056;2023-08-17T05:36:50;21.10;1.00
506;DHT22;551;48.524;9.056;2023-08-17T05:39:15;21.30;1.00
506;DHT22;551;48.524;9.056;2023-08-17T05:41:41;21.20;1.00
506;DHT22;551;48.524;9.056;2023-08-17T05:44:06;21.30;1.00
506;DHT22;551;48.524;9.056;2023-08-17T05:46:35;21.30;1.00
506;DHT22;551;48.524;9.056;2023-08-17T05:49:02;21.30;1.00
506;DHT22;551;48.524;9.056;2023-08-17T05:51:27;21.30;1.00
506;DHT22;551;48.524;9.056;2023-08-17T05:53:53;21.40;1.00
506;DHT22;551;48.524;9.056;2023-08-17T05:56:18;21.40;1.00
506;DHT22;551;48.524;9.056;2023-08-17T05:58:44;21.40;1.00
506;DHT22;551;48.524;9.056;2023-08-17T06:01:10;21.50;1.00
506;DHT22;551;48.524;9.056;2023-08-17T06:03:37;21.50;1.00
506;DHT22;551;48.524;9.056;2023-08-17T06:06:03;21.50;1.00
506;DHT22;551;48.524;9.056;2023-08-17T06:08:29;21.60;1.00
506;DHT22;551;48.524;9.056;2023-08-17T06:10:55;21.60;1.00
506;DHT22;551;48.524;9.056;2023-08-17T06:13:20;21.60;1.00
506;DHT22;551;48.524;9.056;2023-08-17T06:15:46;21.70;1.00
506;DHT22;551;48.524;9.056;2023-08-17T06:18:11;21.80;1.00
506;DHT22;551;48.524;9.056;2023-08-17T06:20:37;21.80;1.00
506;DHT22;551;48.524;9.056;2023-08-17T06:23:03;21.90;1.00
506;DHT22;551;48.524;9.056;2023-08-17T06:25:28;21.80;1.00
506;DHT22;551;48.524;9.056;2023-08-17T06:27:54;22.00;1.00
506;DHT22;551;48.524;9.056;2023-08-17T06:30:19;22.10;1.00
506;DHT22;551;48.524;9.056;2023-08-17T06:32:45;22.20;1.00
506;DHT22;551;48.524;9.056;2023-08-17T06:35:10;22.30;1.00
506;DHT22;551;48.524;9.056;2023-08-17T06:37:36;22.30;1.00
506;DHT22;551;48.524;9.056;2023-08-17T06:40:05;22.40;1.00
506;DHT22;551;48.524;9.056;2023-08-17T06:42:31;22.40;1.00
506;DHT22;551;48.524;9.056;2023-08-17T06:44:57;22.40;1.00
506;DHT22;551;48.524;9.056;2023-08-17T06:47:22;22.50;1.00
506;DHT22;551;48.524;9.056;2023-08-17T06:49:48;22.60;1.00
506;DHT22;551;48.524;9.056;2023-08-17T06:52:14;22.70;1.00
506;DHT22;551;48.524;9.056;2023-08-17T06:54:39;22.70;1.00
506;DHT22;551;48.524;9.056;2023-08-17T06:57:05;22.80;1.00
506;DHT22;551;48.524;9.056;2023-08-17T06:59:31;22.80;1.00
506;DHT22;551;48.524;9.056;2023-08-17T07:01:58;22.90;1.00
506;DHT22;551;48.524;9.056;2023-08-17T07:04:24;23.00;1.00
506;DHT22;551;48.524;9.056;2023-08-17T07:06:49;23.00;1.00
506;DHT22;551;48.524;9.056;2023-08-17T07:09:15;23.10;1.00
506;DHT22;551;48.524;9.056;2023-08-17T07:11:40;23.10;1.00
506;DHT22;551;48.524;9.056;2023-08-17T07:14:06;23.10;1.00
506;DHT22;551;48.524;9.056;2023-08-17T07:16:32;23.00;1.00
506;DHT22;551;48.524;9.056;2023-08-17T07:18:57;22.90;1.00
506;DHT22;551;48.524;9.056;2023-08-17T07:21:23;23.00;1.00
506;DHT22;551;48.524;9.056;2023-08-17T07:23:49;23.00;1.00
506;DHT22;551;48.524;9.056;2023-08-17T07:26:15;23.20;1.00
506;DHT22;551;48.524;9.056;2023-08-17T07:28:41;23.10;1.00
506;DHT22;551;48.524;9.056;2023-08-17T07:31:06;23.10;1.00
506;DHT22;551;48.524;9.056;2023-08-17T07:33:32;23.10;1.00
506;DHT22;551;48.524;9.056;2023-08-17T07:35:57;22.90;1.00
506;DHT22;551;48.524;9.056;2023-08-17T07:38:23;22.90;1.00
506;DHT22;551;48.524;9.056;2023-08-17T07:40:49;22.80;1.00
506;DHT22;551;48.524;9.056;2023-08-17T07:43:14;22.50;1.00
506;DHT22;551;48.524;9.056;2023-08-17T07:45:40;22.40;1.00
506;DHT22;551;48.524;9.056;2023-08-17T07:48:06;22.30;1.00
506;DHT22;551;48.524;9.056;2023-08-17T07:50:31;22.20;1.00
506;DHT22;551;48.524;9.056;2023-08-17T07:52:57;22.20;1.00
506;DHT22;551;48.524;9.056;2023-08-17T07:55:22;22.20;1.00
506;DHT22;551;48.524;9.056;2023-08-17T07:57:48;22.20;1.00
506;DHT22;551;48.524;9.056;2023-08-17T08:00:14;22.10;1.00
506;DHT22;551;48.524;9.056;2023-08-17T08:02:40;22.30;1.00
506;DHT22;551;48.524;9.056;2023-08-17T08:05:05;22.40;1.00
506;DHT22;551;48.524;9.056;2023-08-17T08:07:31;22.50;1.00
506;DHT22;551;48.524;9.056;2023-08-17T08:09:57;22.70;1.00
506;DHT22;551;48.524;9.056;2023-08-17T08:12:23;22.90;1.00
506;DHT22;551;48.524;9.056;2023-08-17T08:14:48;23.20;1.00
506;DHT22;551;48.524;9.056;2023-08-17T08:17:14;23.20;1.00
506;DHT22;551;48.524;9.056;2023-08-17T08:19:40;23.30;1.00
506;DHT22;551;48.524;9.056;2023-08-17T08:22:05;23.20;1.00
506;DHT22;551;48.524;9.056;2023-08-17T08:24:31;23.30;1.00
506;DHT22;551;48.524;9.056;2023-08-17T08:27:00;23.30;1.00
506;DHT22;551;48.524;9.056;2023-08-17T08:29:26;23.10;1.00
506;DHT22;551;48.524;9.056;2023-08-17T08:31:53;23.20;1.00
506;DHT22;551;48.524;9.056;2023-08-17T08:34:19;23.40;1.00
506;DHT22;551;48.524;9.056;2023-08-17T08:36:44;23.70;1.00
506;DHT22;551;48.524;9.056;2023-08-17T08:39:10;23.90;1.00
506;DHT22;551;48.524;9.056;2023-08-17T08:41:37;24.20;1.00
506;DHT22;551;48.524;9.056;2023-08-17T08:44:04;24.50;1.00
506;DHT22;551;48.524;9.056;2023-08-17T08:46:30;24.60;1.00
506;DHT22;551;48.524;9.056;2023-08-17T08:48:59;25.00;1.00
506;DHT22;551;48.524;9.056;2023-08-17T08:51:27;25.40;1.00
506;DHT22;551;48.524;9.056;2023-08-17T08:54:01;25.80;1.00
506;DHT22;551;48.524;9.056;2023-08-17T08:56:33;26.10;1.00
506;DHT22;551;48.524;9.056;2023-08-17T08:59:06;27.10;1.00
506;DHT22;551;48.524;9.056;2023-08-17T09:01:32;28.30;1.00
506;DHT22;551;48.524;9.056;2023-08-17T09:04:01;28.80;1.00
506;DHT22;551;48.524;9.056;2023-08-17T09:06:29;29.00;1.00
506;DHT22;551;48.524;9.056;2023-08-17T09:08:55;29.10;1.00
506;DHT22;551;48.524;9.056;2023-08-17T09:11:22;29.20;1.00
506;DHT22;551;48.524;9.056;2023-08-17T09:13:47;29.10;1.00
506;DHT22;551;48.524;9.056;2023-08-17T09:16:13;29.00;1.00
506;DHT22;551;48.524;9.056;2023-08-17T09:18:38;28.90;1.00
506;DHT22;551;48.524;9.056;2023-08-17T09:21:04;29.10;1.00
506;DHT22;551;48.524;9.056;2023-08-17T09:23:30;29.30;1.00
506;DHT22;551;48.524;9.056;2023-08-17T09:25:56;30.80;1.00
506;DHT22;551;48.524;9.056;2023-08-17T09:28:24;32.10;1.00
506;DHT22;551;48.524;9.056;2023-08-17T09:30:50;33.20;1.00
506;DHT22;551;48.524;9.056;2023-08-17T09:33:24;33.30;1.00
506;DHT22;551;48.524;9.056;2023-08-17T09:35:51;34.30;1.00
506;DHT22;551;48.524;9.056;2023-08-17T09:38:17;35.80;1.00
506;DHT22;551;48.524;9.056;2023-08-17T09:40:44;36.90;1.00
506;DHT22;551;48.524;9.056;2023-08-17T09:43:10;38.10;1.00
506;DHT22;551;48.524;9.056;2023-08-17T09:45:37;40.00;1.00
506;DHT22;551;48.524;9.056;2023-08-17T09:48:04;40.70;1.00
506;DHT22;551;48.524;9.056;2023-08-17T09:50:30;41.20;1.00
506;DHT22;551;48.524;9.056;2023-08-17T09:52:55;40.50;1.00
506;DHT22;551;48.524;9.056;2023-08-17T09:55:22;39.40;1.00
506;DHT22;551;48.524;9.056;2023-08-17T09:57:49;37.80;1.00
506;DHT22;551;48.524;9.056;2023-08-17T10:00:16;36.50;1.00
506;DHT22;551;48.524;9.056;2023-08-17T10:02:43;35.70;1.00
506;DHT22;551;48.524;9.056;2023-08-17T10:05:11;35.50;1.00
506;DHT22;551;48.524;9.056;2023-08-17T10:07:41;35.80;1.00
506;DHT22;551;48.524;9.056;2023-08-17T10:10:09;36.90;1.00
506;DHT22;551;48.524;9.056;2023-08-17T10:12:44;37.20;1.00
506;DHT22;551;48.524;9.056;2023-08-17T10:15:13;37.50;1.00
506;DHT22;551;48.524;9.056;2023-08-17T10:18:12;37.50;1.00
506;DHT22;551;48.524;9.056;2023-08-17T10:20:42;37.90;1.00
506;DHT22;551;48.524;9.056;2023-08-17T10:23:15;36.90;1.00
506;DHT22;551;48.524;9.056;2023-08-17T10:25:42;36.90;1.00
506;DHT22;551;48.524;9.056;2023-08-17T10:28:12;36.20;1.00
506;DHT22;551;48.524;9.056;2023-08-17T10:30:38;36.00;1.00
506;DHT22;551;48.524;9.056;2023-08-17T10:33:05;35.50;1.00
506;DHT22;551;48.524;9.056;2023-08-17T10:35:35;34.90;1.00
506;DHT22;551;48.524;9.056;2023-08-17T10:38:02;34.30;1.00
506;DHT22;551;48.524;9.056;2023-08-17T10:40:33;34.20;1.00
506;DHT22;551;48.524;9.056;2023-08-17T10:42:59;34.80;1.00
506;DHT22;551;48.524;9.056;2023-08-17T10:50:31;35.00;1.00
506;DHT22;551;48.524;9.056;2023-08-17T10:52:58;34.70;1.00
506;DHT22;551;48.524;9.056;2023-08-17T10:55:36;33.80;1.00
506;DHT22;551;48.524;9.056;2023-08-17T10:58:02;33.30;1.00
506;DHT22;551;48.524;9.056;2023-08-17T11:00:35;33.00;1.00
506;DHT22;551;48.524;9.056;2023-08-17T11:03:05;33.00;1.00
506;DHT22;551;48.524;9.056;2023-08-17T11:05:50;33.30;1.00
506;DHT22;551;48.524;9.056;2023-08-17T11:11:03;35.10;1.00
506;DHT22;551;48.524;9.056;2023-08-17T11:13:40;36.00;1.00
506;DHT22;551;48.524;9.056;2023-08-17T11:16:07;36.70;1.00
506;DHT22;551;48.524;9.056;2023-08-17T11:18:34;37.10;1.00
506;DHT22;551;48.524;9.056;2023-08-17T11:21:01;37.00;1.00
506;DHT22;551;48.524;9.056;2023-08-17T11:23:29;37.60;1.00
506;DHT22;551;48.524;9.056;2023-08-17T11:25:55;39.00;1.00
506;DHT22;551;48.524;9.056;2023-08-17T11:28:22;39.10;1.00
506;DHT22;551;48.524;9.056;2023-08-17T11:31:00;38.30;1.00
506;DHT22;551;48.524;9.056;2023-08-17T11:33:26;36.70;1.00
506;DHT22;551;48.524;9.056;2023-08-17T11:35:57;35.90;1.00
506;DHT22;551;48.524;9.056;2023-08-17T11:38:23;34.80;1.00
506;DHT22;551;48.524;9.056;2023-08-17T11:40:49;34.70;1.00
506;DHT22;551;48.524;9.056;2023-08-17T11:43:15;34.80;1.00
506;DHT22;551;48.524;9.056;2023-08-17T11:45:41;35.50;1.00
506;DHT22;551;48.524;9.056;2023-08-17T11:48:07;36.30;1.00
506;DHT22;551;48.524;9.056;2023-08-17T11:50:32;36.90;1.00
506;DHT22;551;48.524;9.056;2023-08-17T11:53:01;37.40;1.00
506;DHT22;551;48.524;9.056;2023-08-17T11:55:27;38.10;1.00
506;DHT22;551;48.524;9.056;2023-08-17T11:57:53;38.30;1.00
506;DHT22;551;48.524;9.056;2023-08-17T12:00:20;37.50;1.00
506;DHT22;551;48.524;9.056;2023-08-17T12:02:50;36.70;1.00
506;DHT22;551;48.524;9.056;2023-08-17T12:05:22;35.60;1.00
506;DHT22;551;48.524;9.056;2023-08-17T12:07:49;34.60;1.00
506;DHT22;551;48.524;9.056;2023-08-17T12:10:15;33.70;1.00
506;DHT22;551;48.524;9.056;2023-08-17T12:12:42;32.90;1.00
506;DHT22;551;48.524;9.056;2023-08-17T12:15:10;32.30;1.00
506;DHT22;551;48.524;9.056;2023-08-17T12:17:44;31.80;1.00
506;DHT22;551;48.524;9.056;2023-08-17T12:20:16;31.40;1.00
506;DHT22;551;48.524;9.056;2023-08-17T12:22:42;31.00;1.00
506;DHT22;551;48.524;9.056;2023-08-17T12:25:09;30.70;1.00
506;DHT22;551;48.524;9.056;2023-08-17T12:27:35;30.50;1.00
506;DHT22;551;48.524;9.056;2023-08-17T12:30:01;30.20;1.00
506;DHT22;551;48.524;9.056;2023-08-17T12:32:27;29.30;1.00
506;DHT22;551;48.524;9.056;2023-08-17T12:34:52;30.00;1.00
506;DHT22;551;48.524;9.056;2023-08-17T12:37:19;29.90;1.00
506;DHT22;551;48.524;9.056;2023-08-17T12:39:46;29.80;1.00
506;DHT22;551;48.524;9.056;2023-08-17T12:42:12;29.80;1.00
506;DHT22;551;48.524;9.056;2023-08-17T12:44:39;29.80;1.00
506;DHT22;551;48.524;9.056;2023-08-17T12:47:05;29.70;1.00
506;DHT22;551;48.524;9.056;2023-08-17T12:49:30;29.60;1.00
506;DHT22;551;48.524;9.056;2023-08-17T12:51:56;29.50;1.00
506;DHT22;551;48.524;9.056;2023-08-17T12:54:21;29.50;1.00
506;DHT22;551;48.524;9.056;2023-08-17T12:56:47;29.40;1.00
506;DHT22;551;48.524;9.056;2023-08-17T12:59:12;29.30;1.00
506;DHT22;551;48.524;9.056;2023-08-17T13:01:38;29.20;1.00
506;DHT22;551;48.524;9.056;2023-08-17T13:04:04;29.10;1.00
506;DHT22;551;48.524;9.056;2023-08-17T13:06:30;28.90;1.00
506;DHT22;551;48.524;9.056;2023-08-17T13:08:55;28.80;1.00
506;DHT22;551;48.524;9.056;2023-08-17T13:11:21;28.60;1.00
506;DHT22;551;48.524;9.056;2023-08-17T13:13:46;28.50;1.00
506;DHT22;551;48.524;9.056;2023-08-17T13:16:12;28.40;1.00
506;DHT22;551;48.524;9.056;2023-08-17T13:18:38;28.40;1.00
506;DHT22;551;48.524;9.056;2023-08-17T13:21:03;28.30;1.00
506;DHT22;551;48.524;9.056;2023-08-17T13:23:29;28.10;1.00
506;DHT22;551;48.524;9.056;2023-08-17T13:25:55;28.00;1.00
506;DHT22;551;48.524;9.056;2023-08-17T13:28:20;27.80;1.00
506;DHT22;551;48.524;9.056;2023-08-17T13:30:46;27.70;1.00
506;DHT22;551;48.524;9.056;2023-08-17T13:33:12;27.60;1.00
506;DHT22;551;48.524;9.056;2023-08-17T13:35:38;27.60;1.00
506;DHT22;551;48.524;9.056;2023-08-17T13:38:03;27.50;1.00
506;DHT22;551;48.524;9.056;2023-08-17T13:40:30;27.50;1.00
506;DHT22;551;48.524;9.056;2023-08-17T13:42:56;27.50;1.00
506;DHT22;551;48.524;9.056;2023-08-17T13:45:21;27.40;1.00
506;DHT22;551;48.524;9.056;2023-08-17T13:47:47;27.50;1.00
506;DHT22;551;48.524;9.056;2023-08-17T13:50:12;27.40;1.00
506;DHT22;551;48.524;9.056;2023-08-17T13:52:38;27.40;1.00
506;DHT22;551;48.524;9.056;2023-08-17T13:55:04;27.40;1.00
506;DHT22;551;48.524;9.056;2023-08-17T13:57:29;27.30;1.00
506;DHT22;551;48.524;9.056;2023-08-17T13:59:55;27.30;1.00
506;DHT22;551;48.524;9.056;2023-08-17T14:02:20;27.20;1.00
506;DHT22;551;48.524;9.056;2023-08-17T14:04:46;27.20;1.00
506;DHT22;551;48.524;9.056;2023-08-17T14:07:11;27.20;1.00
506;DHT22;551;48.524;9.056;2023-08-17T14:09:37;27.30;1.00
506;DHT22;551;48.524;9.056;2023-08-17T14:12:03;27.30;1.00
506;DHT22;551;48.524;9.056;2023-08-17T14:14:30;27.40;1.00
506;DHT22;551;48.524;9.056;2023-08-17T14:16:56;27.60;1.00
506;DHT22;551;48.524;9.056;2023-08-17T14:19:22;27.90;1.00
506;DHT22;551;48.524;9.056;2023-08-17T14:21:48;28.20;1.00
506;DHT22;551;48.524;9.056;2023-08-17T14:24:14;28.50;1.00
506;DHT22;551;48.524;9.056;2023-08-17T14:26:39;29.10;1.00
506;DHT22;551;48.524;9.056;2023-08-17T14:29:05;29.50;1.00
506;DHT22;551;48.524;9.056;2023-08-17T14:31:30;30.10;1.00
506;DHT22;551;48.524;9.056;2023-08-17T14:33:56;30.60;1.00
506;DHT22;551;48.524;9.056;2023-08-17T14:36:21;30.90;1.00
506;DHT22;551;48.524;9.056;2023-08-17T14:38:47;31.30;1.00
506;DHT22;551;48.524;9.056;2023-08-17T14:41:13;31.70;1.00
506;DHT22;551;48.524;9.056;2023-08-17T14:43:38;32.10;1.00
506;DHT22;551;48.524;9.056;2023-08-17T14:46:04;32.30;1.00
506;DHT22;551;48.524;9.056;2023-08-17T14:48:29;32.60;1.00
506;DHT22;551;48.524;9.056;2023-08-17T14:50:55;32.70;1.00
506;DHT22;551;48.524;9.056;2023-08-17T14:53:21;32.80;1.00
506;DHT22;551;48.524;9.056;2023-08-17T14:55:46;32.80;1.00
506;DHT22;551;48.524;9.056;2023-08-17T14:58:12;32.80;1.00
506;DHT22;551;48.524;9.056;2023-08-17T15:00:39;32.60;1.00
506;DHT22;551;48.524;9.056;2023-08-17T15:03:04;32.40;1.00
506;DHT22;551;48.524;9.056;2023-08-17T15:05:33;32.30;1.00
506;DHT22;551;48.524;9.056;2023-08-17T15:08:01;32.30;1.00
506;DHT22;551;48.524;9.056;2023-08-17T15:10:27;32.30;1.00
506;DHT22;551;48.524;9.056;2023-08-17T15:12:52;32.30;1.00
506;DHT22;551;48.524;9.056;2023-08-17T15:15:18;32.30;1.00
506;DHT22;551;48.524;9.056;2023-08-17T15:17:44;32.20;1.00
506;DHT22;551;48.524;9.056;2023-08-17T15:20:09;32.00;1.00
506;DHT22;551;48.524;9.056;2023-08-17T15:22:35;31.70;1.00
506;DHT22;551;48.524;9.056;2023-08-17T15:25:01;31.70;1.00
506;DHT22;551;48.524;9.056;2023-08-17T15:27:26;31.60;1.00
506;DHT22;551;48.524;9.056;2023-08-17T15:29:52;31.50;1.00
506;DHT22;551;48.524;9.056;2023-08-17T15:32:18;31.50;1.00
506;DHT22;551;48.524;9.056;2023-08-17T15:34:43;31.40;1.00
506;DHT22;551;48.524;9.056;2023-08-17T15:37:08;31.30;1.00
506;DHT22;551;48.524;9.056;2023-08-17T15:39:34;31.10;1.00
506;DHT22;551;48.524;9.056;2023-08-17T15:42:00;31.10;1.00
506;DHT22;551;48.524;9.056;2023-08-17T15:44:25;31.10;1.00
506;DHT22;551;48.524;9.056;2023-08-17T15:46:51;31.10;1.00
506;DHT22;551;48.524;9.056;2023-08-17T15:49:17;31.10;1.00
506;DHT22;551;48.524;9.056;2023-08-17T15:51:42;31.10;1.00
506;DHT22;551;48.524;9.056;2023-08-17T15:54:08;31.00;1.00
506;DHT22;551;48.524;9.056;2023-08-17T15:56:33;30.80;1.00
506;DHT22;551;48.524;9.056;2023-08-17T15:58:59;30.80;1.00
506;DHT22;551;48.524;9.056;2023-08-17T16:01:24;30.70;1.00
506;DHT22;551;48.524;9.056;2023-08-17T16:03:50;30.70;1.00
506;DHT22;551;48.524;9.056;2023-08-17T16:06:16;30.50;1.00
506;DHT22;551;48.524;9.056;2023-08-17T16:08:44;30.50;1.00
506;DHT22;551;48.524;9.056;2023-08-17T16:11:10;30.40;1.00
506;DHT22;551;48.524;9.056;2023-08-17T16:13:40;30.30;1.00
506;DHT22;551;48.524;9.056;2023-08-17T16:16:05;30.20;1.00
506;DHT22;551;48.524;9.056;2023-08-17T16:18:31;30.00;1.00
506;DHT22;551;48.524;9.056;2023-08-17T16:20:57;29.80;1.00
506;DHT22;551;48.524;9.056;2023-08-17T16:23:22;29.70;1.00
506;DHT22;551;48.524;9.056;2023-08-17T16:25:48;29.60;1.00
506;DHT22;551;48.524;9.056;2023-08-17T16:28:13;29.60;1.00
506;DHT22;551;48.524;9.056;2023-08-17T16:30:39;29.50;1.00
506;DHT22;551;48.524;9.056;2023-08-17T16:33:06;29.50;1.00
506;DHT22;551;48.524;9.056;2023-08-17T16:35:32;29.40;1.00
506;DHT22;551;48.524;9.056;2023-08-17T16:37:58;29.30;1.00
506;DHT22;551;48.524;9.056;2023-08-17T16:40:23;29.30;1.00
506;DHT22;551;48.524;9.056;2023-08-17T16:42:49;29.30;1.00
506;DHT22;551;48.524;9.056;2023-08-17T16:45:17;29.20;1.00
506;DHT22;551;48.524;9.056;2023-08-17T16:47:44;29.10;1.00
506;DHT22;551;48.524;9.056;2023-08-17T16:50:10;29.00;1.00
506;DHT22;551;48.524;9.056;2023-08-17T16:52:36;28.90;1.00
506;DHT22;551;48.524;9.056;2023-08-17T16:55:01;28.80;1.00